createdAt,value
2022-09-29T00:00:54.341Z,2.05
2022-09-29T00:03:22.658Z,1.90
2022-09-29T00:05:51.679Z,2.30
2022-09-29T00:08:21.512Z,2.60
2022-09-29T00:10:49.621Z,2.38
2022-09-29T00:13:17.879Z,2.38
2022-09-29T00:15:45.992Z,1.95
2022-09-29T00:18:14.938Z,2.33
2022-09-29T00:20:43.242Z,2.50
2022-09-29T00:23:11.302Z,2.30
2022-09-29T00:25:40.756Z,2.28
2022-09-29T00:28:08.833Z,2.45
2022-09-29T00:30:36.922Z,2.50
2022-09-29T00:33:05.085Z,2.47
2022-09-29T00:35:33.242Z,2.17
2022-09-29T00:38:01.300Z,2.30
2022-09-29T00:40:29.460Z,2.25
2022-09-29T00:42:58.928Z,2.20
2022-09-29T00:45:27.395Z,2.83
2022-09-29T00:48:01.444Z,2.40
2022-09-29T00:50:33.255Z,2.20
2022-09-29T00:53:01.870Z,2.15
2022-09-29T00:55:31.934Z,2.00
2022-09-29T00:58:02.392Z,2.55
2022-09-29T01:00:30.566Z,2.50
2022-09-29T01:03:00.540Z,2.22
2022-09-29T01:05:30.719Z,2.05
2022-09-29T01:07:58.829Z,2.65
2022-09-29T01:10:27.568Z,2.50
2022-09-29T01:12:55.634Z,2.60
2022-09-29T01:15:25.111Z,2.47
2022-09-29T01:17:53.184Z,2.63
2022-09-29T01:20:22.595Z,2.65
2022-09-29T01:23:18.686Z,2.63
2022-09-29T01:26:24.229Z,3.30
2022-09-29T01:29:18.001Z,2.47
2022-09-29T01:31:50.908Z,2.72
2022-09-29T01:34:21.298Z,2.67
2022-09-29T01:36:52.659Z,2.72
2022-09-29T01:39:24.993Z,2.80
2022-09-29T01:41:54.429Z,2.80
2022-09-29T01:44:25.632Z,3.13
2022-09-29T01:46:57.309Z,2.70
2022-09-29T01:49:25.994Z,2.75
2022-09-29T01:51:55.331Z,2.83
2022-09-29T01:54:26.233Z,2.75
2022-09-29T01:56:56.829Z,2.90
2022-09-29T01:59:28.389Z,2.60
2022-09-29T02:02:00.909Z,3.17
2022-09-29T02:04:30.889Z,3.45
2022-09-29T02:07:00.634Z,2.90
2022-09-29T02:09:29.722Z,3.30
2022-09-29T02:11:57.796Z,2.83
2022-09-29T02:14:26.666Z,2.35
2022-09-29T02:16:59.043Z,2.58
2022-09-29T02:19:28.186Z,2.75
2022-09-29T02:21:56.243Z,3.00
2022-09-29T02:24:24.309Z,2.60
2022-09-29T02:26:52.772Z,2.60
2022-09-29T02:29:20.866Z,2.95
2022-09-29T02:31:48.992Z,2.70
2022-09-29T02:34:19.553Z,2.63
2022-09-29T02:36:52.125Z,3.30
2022-09-29T02:39:27.384Z,3.30
2022-09-29T02:41:57.806Z,3.08
2022-09-29T02:44:42.921Z,2.78
2022-09-29T02:47:30.036Z,3.38
2022-09-29T02:50:26.013Z,2.72
2022-09-29T02:52:55.934Z,3.00
2022-09-29T02:55:26.990Z,2.80
2022-09-29T02:57:56.454Z,2.90
2022-09-29T03:00:24.536Z,3.38
2022-09-29T03:02:52.585Z,2.95
2022-09-29T03:05:22.855Z,3.25
2022-09-29T03:07:50.939Z,2.75
2022-09-29T03:10:19.280Z,2.42
2022-09-29T03:12:47.857Z,2.90
2022-09-29T03:15:16.089Z,3.13
2022-09-29T03:17:44.128Z,3.00
2022-09-29T03:20:12.187Z,2.88
2022-09-29T03:22:41.615Z,3.00
2022-09-29T03:25:10.058Z,2.80
2022-09-29T03:27:38.535Z,2.72
2022-09-29T03:30:07.696Z,2.80
2022-09-29T03:32:35.761Z,2.65
2022-09-29T03:35:04.152Z,4.05
2022-09-29T03:37:32.211Z,2.80
2022-09-29T03:40:02.096Z,2.67
2022-09-29T03:42:30.128Z,2.70
2022-09-29T03:44:58.194Z,3.60
2022-09-29T03:47:26.262Z,2.50
2022-09-29T03:49:54.329Z,2.65
2022-09-29T03:52:22.392Z,2.85
2022-09-29T03:54:50.439Z,3.13
2022-09-29T03:57:19.852Z,2.63
2022-09-29T03:59:47.907Z,2.67
2022-09-29T04:02:18.359Z,4.53
2022-09-29T04:04:46.523Z,2.65
2022-09-29T04:07:14.570Z,2.85
2022-09-29T04:09:43.199Z,3.03
2022-09-29T04:12:11.336Z,2.50
2022-09-29T04:14:40.834Z,3.00
2022-09-29T04:17:08.879Z,2.97
2022-09-29T04:19:36.956Z,3.10
2022-09-29T04:22:05.044Z,2.78
2022-09-29T04:24:33.109Z,2.83
2022-09-29T04:27:01.160Z,2.97
2022-09-29T04:29:29.255Z,2.80
2022-09-29T04:31:58.735Z,2.70
2022-09-29T04:34:26.782Z,2.65
2022-09-29T04:36:55.136Z,3.17
2022-09-29T04:39:23.200Z,2.60
2022-09-29T04:41:51.248Z,2.63
2022-09-29T04:44:22.246Z,2.83
2022-09-29T04:46:51.106Z,2.60
2022-09-29T04:49:20.751Z,2.67
2022-09-29T04:51:48.955Z,2.67
2022-09-29T04:54:17.270Z,2.85
2022-09-29T04:56:45.307Z,3.20
2022-09-29T04:59:13.451Z,3.42
2022-09-29T05:01:41.498Z,2.85
2022-09-29T05:04:10.843Z,3.33
2022-09-29T05:06:40.324Z,3.08
2022-09-29T05:09:08.702Z,2.83
2022-09-29T05:11:36.765Z,2.70
2022-09-29T05:14:04.842Z,2.85
2022-09-29T05:16:33.030Z,3.70
2022-09-29T05:19:01.149Z,3.25
2022-09-29T05:21:29.612Z,3.72
2022-09-29T05:23:59.199Z,3.28
2022-09-29T05:26:27.276Z,3.35
2022-09-29T05:28:55.372Z,3.50
2022-09-29T05:31:24.200Z,3.40
2022-09-29T05:33:52.375Z,3.20
2022-09-29T05:36:20.485Z,4.18
2022-09-29T05:38:48.757Z,4.15
2022-09-29T05:41:22.637Z,3.28
2022-09-29T05:43:51.016Z,3.15
2022-09-29T05:46:19.444Z,3.63
2022-09-29T05:48:48.079Z,3.90
2022-09-29T05:51:22.615Z,3.80
2022-09-29T05:53:51.528Z,3.50
2022-09-29T05:56:22.753Z,3.60
2022-09-29T05:58:51.441Z,3.60
2022-09-29T06:01:20.404Z,3.70
2022-09-29T06:03:48.642Z,3.65
2022-09-29T06:06:18.319Z,4.43
2022-09-29T06:08:46.455Z,3.47
2022-09-29T06:11:15.809Z,4.07
2022-09-29T06:13:46.468Z,4.47
2022-09-29T06:16:15.425Z,4.65
2022-09-29T06:18:43.569Z,4.78
2022-09-29T06:21:12.653Z,4.82
2022-09-29T06:23:40.847Z,4.97
2022-09-29T06:26:10.139Z,4.30
2022-09-29T06:28:38.332Z,4.03
2022-09-29T06:31:08.624Z,4.30
2022-09-29T06:33:36.828Z,4.45
2022-09-29T06:36:23.863Z,3.90
2022-09-29T06:38:51.947Z,3.90
2022-09-29T06:41:21.082Z,4.55
2022-09-29T06:43:49.172Z,4.43
2022-09-29T06:46:18.798Z,4.07
2022-09-29T06:48:46.969Z,4.38
2022-09-29T06:51:15.471Z,4.82
2022-09-29T06:53:43.864Z,4.53
2022-09-29T06:56:11.914Z,5.03
2022-09-29T06:58:40.392Z,4.72
2022-09-29T07:01:09.034Z,5.38
2022-09-29T07:03:38.956Z,5.20
2022-09-29T07:06:19.390Z,5.35
2022-09-29T07:08:48.064Z,5.20
2022-09-29T07:11:16.689Z,4.45
2022-09-29T07:13:44.806Z,5.15
2022-09-29T07:16:13.828Z,5.38
2022-09-29T07:18:43.868Z,4.85
2022-09-29T07:21:13.159Z,4.97
2022-09-29T07:23:42.402Z,4.90
2022-09-29T07:26:10.487Z,4.38
2022-09-29T07:28:38.599Z,4.22
2022-09-29T07:31:14.079Z,4.63
2022-09-29T07:33:44.208Z,4.45
2022-09-29T07:36:12.366Z,4.00
2022-09-29T07:38:40.456Z,4.60
2022-09-29T07:41:10.114Z,4.60
2022-09-29T07:43:38.183Z,5.40
2022-09-29T07:46:06.804Z,5.72
2022-09-29T07:48:35.387Z,5.45
2022-09-29T07:51:05.522Z,5.43
2022-09-29T07:53:34.466Z,5.80
2022-09-29T07:56:04.366Z,6.05
2022-09-29T07:58:33.454Z,5.97
2022-09-29T08:01:01.852Z,7.13
2022-09-29T08:03:30.404Z,5.60
2022-09-29T08:05:59.298Z,6.38
2022-09-29T08:08:28.758Z,7.85
2022-09-29T08:11:03.444Z,6.22
2022-09-29T08:13:32.777Z,6.82
2022-09-29T08:16:00.962Z,6.05
2022-09-29T08:18:29.023Z,6.72
2022-09-29T08:20:59.953Z,6.05
2022-09-29T08:23:32.970Z,5.65
2022-09-29T08:26:02.677Z,5.25
2022-09-29T08:28:32.598Z,4.93
2022-09-29T08:31:04.502Z,5.25
2022-09-29T08:33:33.156Z,4.63
2022-09-29T08:36:01.656Z,4.70
2022-09-29T08:38:30.101Z,4.35
2022-09-29T08:40:59.803Z,5.15
2022-09-29T08:43:35.119Z,4.90
2022-09-29T08:46:05.871Z,4.75
2022-09-29T08:48:37.111Z,4.60
2022-09-29T08:51:07.114Z,4.32
2022-09-29T08:53:36.743Z,5.72
2022-09-29T08:56:07.276Z,3.78
2022-09-29T08:58:35.553Z,4.18
2022-09-29T09:01:16.368Z,4.30
2022-09-29T09:03:59.240Z,4.15
2022-09-29T09:06:30.151Z,4.28
2022-09-29T09:09:42.133Z,3.72
2022-09-29T09:12:26.134Z,3.53
2022-09-29T09:15:04.952Z,3.10
2022-09-29T09:17:52.487Z,4.82
2022-09-29T09:20:27.273Z,3.45
2022-09-29T09:22:58.079Z,3.25
2022-09-29T09:25:30.609Z,3.20
2022-09-29T09:28:14.740Z,3.60
2022-09-29T09:30:44.373Z,3.83
2022-09-29T09:33:30.313Z,3.35
2022-09-29T09:36:02.280Z,3.72
2022-09-29T09:38:43.076Z,3.42
2022-09-29T09:41:11.770Z,3.75
2022-09-29T09:43:43.767Z,3.20
2022-09-29T09:46:15.112Z,3.60
2022-09-29T09:48:44.691Z,3.13
2022-09-29T09:51:25.346Z,2.92
2022-09-29T09:53:53.479Z,3.20
2022-09-29T09:56:26.433Z,4.65
2022-09-29T09:59:08.394Z,5.13
2022-09-29T10:01:36.531Z,3.83
2022-09-29T10:04:04.650Z,2.95
2022-09-29T10:06:32.689Z,2.63
2022-09-29T10:09:00.814Z,2.50
2022-09-29T10:11:30.705Z,2.58
2022-09-29T10:14:01.886Z,2.75
2022-09-29T10:16:34.298Z,2.60
2022-09-29T10:19:02.528Z,2.63
2022-09-29T10:21:38.258Z,2.72
2022-09-29T10:24:08.278Z,2.42
2022-09-29T10:26:38.527Z,3.47
2022-09-29T10:29:22.321Z,2.45
2022-09-29T10:32:03.571Z,2.92
2022-09-29T10:34:31.862Z,3.22
2022-09-29T10:37:02.266Z,2.33
2022-09-29T10:39:35.147Z,2.70
2022-09-29T10:42:04.919Z,2.83
2022-09-29T10:44:34.740Z,3.00
2022-09-29T10:47:03.151Z,3.22
2022-09-29T10:49:32.141Z,3.03
2022-09-29T10:52:02.272Z,2.80
2022-09-29T10:54:33.988Z,3.10
2022-09-29T10:57:02.367Z,2.90
2022-09-29T10:59:30.949Z,2.90
2022-09-29T11:02:01.264Z,3.03
2022-09-29T11:04:31.082Z,3.35
2022-09-29T11:07:00.009Z,2.70
2022-09-29T11:09:32.666Z,2.65
2022-09-29T11:12:05.020Z,2.90
2022-09-29T11:14:42.019Z,3.08
2022-09-29T11:17:24.090Z,2.85
2022-09-29T11:19:52.656Z,2.97
2022-09-29T11:22:51.263Z,2.92
2022-09-29T11:25:35.903Z,3.08
2022-09-29T11:28:14.467Z,3.00
2022-09-29T11:30:48.836Z,3.00
2022-09-29T11:33:23.491Z,2.65
2022-09-29T11:35:55.814Z,3.60
2022-09-29T11:38:32.577Z,2.72
2022-09-29T11:41:06.397Z,2.90
2022-09-29T11:43:42.436Z,3.15
2022-09-29T11:46:20.296Z,2.55
2022-09-29T11:49:01.023Z,2.80
2022-09-29T11:51:34.039Z,2.60
2022-09-29T11:54:14.632Z,2.78
2022-09-29T11:56:45.648Z,2.55
2022-09-29T11:59:39.336Z,2.70
2022-09-29T12:02:27.209Z,2.78
2022-09-29T12:04:59.919Z,2.30
2022-09-29T12:07:37.421Z,2.85
2022-09-29T12:10:29.775Z,2.85
2022-09-29T12:13:04.526Z,3.05
2022-09-29T12:15:48.000Z,3.35
2022-09-29T12:18:36.630Z,2.58
2022-09-29T12:21:09.894Z,2.80
2022-09-29T12:23:40.291Z,2.60
2022-09-29T12:26:10.415Z,2.78
2022-09-29T12:28:42.538Z,2.85
2022-09-29T12:31:13.853Z,2.15
2022-09-29T12:33:43.353Z,2.47
2022-09-29T12:36:50.431Z,2.35
2022-09-29T12:39:25.095Z,2.63
2022-09-29T12:41:55.317Z,2.13
2022-09-29T12:44:26.880Z,2.30
2022-09-29T12:46:57.558Z,2.35
2022-09-29T12:49:28.688Z,2.58
2022-09-29T12:51:58.728Z,2.20
2022-09-29T12:54:32.867Z,2.17
2022-09-29T12:57:03.553Z,2.00
2022-09-29T12:59:37.355Z,2.05
2022-09-29T13:02:19.022Z,2.20
2022-09-29T13:05:04.861Z,2.58
2022-09-29T13:08:14.734Z,2.00
2022-09-29T13:11:20.287Z,2.10
2022-09-29T13:14:04.596Z,1.80
2022-09-29T13:16:44.462Z,1.83
2022-09-29T13:19:58.481Z,2.45
2022-09-29T13:22:52.800Z,2.08
2022-09-29T13:25:28.433Z,2.15
2022-09-29T13:27:56.513Z,2.15
2022-09-29T13:30:25.865Z,2.13
2022-09-29T13:32:57.716Z,1.70
2022-09-29T13:35:27.718Z,1.70
2022-09-29T13:37:57.310Z,1.92
2022-09-29T13:40:29.591Z,2.47
2022-09-29T13:42:59.872Z,1.90
2022-09-29T13:45:41.334Z,2.20
2022-09-29T13:48:35.663Z,1.70
2022-09-29T13:51:24.220Z,1.98
2022-09-29T13:54:39.408Z,3.13
2022-09-29T13:57:26.204Z,2.10
2022-09-29T14:00:28.741Z,2.03
2022-09-29T14:03:25.458Z,2.20
2022-09-29T14:05:58.462Z,1.90
2022-09-29T14:08:30.916Z,1.95
2022-09-29T14:11:09.804Z,2.03
2022-09-29T14:13:44.870Z,2.00
2022-09-29T14:16:21.736Z,1.88
2022-09-29T14:18:52.908Z,1.98
2022-09-29T14:21:46.975Z,2.33
2022-09-29T14:24:43.783Z,2.30
2022-09-29T14:30:13.588Z,1.90
2022-09-29T14:32:44.986Z,2.05
2022-09-29T14:35:18.842Z,2.00
2022-09-29T14:37:47.440Z,2.03
2022-09-29T14:40:29.558Z,1.90
2022-09-29T14:43:14.154Z,2.03
2022-09-29T14:46:18.741Z,2.35
2022-09-29T14:49:14.796Z,2.83
2022-09-29T14:52:00.510Z,2.30
2022-09-29T14:54:43.688Z,2.42
2022-09-29T14:57:33.177Z,2.03
2022-09-29T15:00:07.645Z,1.90
2022-09-29T15:02:38.285Z,2.65
2022-09-29T15:05:17.754Z,2.03
2022-09-29T15:07:45.827Z,2.20
2022-09-29T15:10:23.095Z,1.95
2022-09-29T15:12:51.252Z,2.88
2022-09-29T15:15:34.764Z,1.90
2022-09-29T15:18:12.643Z,2.38
2022-09-29T15:20:52.619Z,2.13
2022-09-29T15:23:39.641Z,1.77
2022-09-29T15:26:09.664Z,2.40
2022-09-29T15:28:38.840Z,2.33
2022-09-29T15:31:07.921Z,1.67
2022-09-29T15:33:38.667Z,1.70
2022-09-29T15:36:07.882Z,2.42
2022-09-29T15:38:38.246Z,2.70
2022-09-29T15:41:15.789Z,3.17
2022-09-29T15:43:45.038Z,1.80
2022-09-29T15:46:21.494Z,2.13
2022-09-29T15:49:11.264Z,2.95
2022-09-29T15:51:39.457Z,3.20
2022-09-29T15:54:09.316Z,2.30
2022-09-29T15:56:58.530Z,2.28
2022-09-29T15:59:43.724Z,2.60
2022-09-29T16:02:24.894Z,2.67
2022-09-29T16:04:55.957Z,2.28
2022-09-29T16:07:27.730Z,2.10
2022-09-29T16:09:59.318Z,1.92
2022-09-29T16:12:27.981Z,1.95
2022-09-29T16:14:56.235Z,2.45
2022-09-29T16:17:24.273Z,2.50
2022-09-29T16:19:52.394Z,1.90
2022-09-29T16:22:24.548Z,1.83
2022-09-29T16:24:54.847Z,2.30
2022-09-29T16:27:46.767Z,2.13
2022-09-29T16:30:22.983Z,2.35
2022-09-29T16:32:57.177Z,2.63
2022-09-29T16:35:58.699Z,2.35
2022-09-29T16:38:35.979Z,3.42
2022-09-29T16:41:16.497Z,4.57
2022-09-29T16:43:46.755Z,2.42
2022-09-29T16:46:20.723Z,7.30
2022-09-29T16:48:50.253Z,14.40
2022-09-29T16:51:38.335Z,6.93
2022-09-29T16:54:10.448Z,6.72
2022-09-29T16:56:39.912Z,2.78
2022-09-29T16:59:12.487Z,3.40
2022-09-29T17:01:41.553Z,3.22
2022-09-29T17:04:09.762Z,4.38
2022-09-29T17:06:37.946Z,5.97
2022-09-29T17:09:06.446Z,2.92
2022-09-29T17:11:36.451Z,4.50
2022-09-29T17:14:04.584Z,12.98
2022-09-29T17:16:32.631Z,8.88
2022-09-29T17:19:01.899Z,5.88
2022-09-29T17:21:33.153Z,3.03
2022-09-29T17:24:03.795Z,2.33
2022-09-29T17:26:55.287Z,2.40
2022-09-29T17:29:23.399Z,2.58
2022-09-29T17:31:51.590Z,2.70
2022-09-29T17:34:23.112Z,3.35
2022-09-29T17:36:52.109Z,2.38
2022-09-29T17:39:20.206Z,4.72
2022-09-29T17:41:49.703Z,4.05
2022-09-29T17:44:17.800Z,4.90
2022-09-29T17:46:46.253Z,5.35
2022-09-29T17:49:19.106Z,2.58
2022-09-29T17:51:47.172Z,2.72
2022-09-29T17:54:15.232Z,2.92
2022-09-29T17:56:44.019Z,10.20
2022-09-29T17:59:14.366Z,6.03
2022-09-29T18:01:42.488Z,8.50
2022-09-29T18:04:11.482Z,10.27
2022-09-29T18:06:39.581Z,13.60
2022-09-29T18:09:15.816Z,7.50
2022-09-29T18:11:44.029Z,9.93
2022-09-29T18:14:13.557Z,6.57
2022-09-29T18:16:41.589Z,7.22
2022-09-29T18:19:17.011Z,6.95
2022-09-29T18:21:45.196Z,6.18
2022-09-29T18:24:13.338Z,6.85
2022-09-29T18:26:41.890Z,6.72
2022-09-29T18:29:17.104Z,5.80
2022-09-29T18:31:45.178Z,5.65
2022-09-29T18:34:15.509Z,6.95
2022-09-29T18:36:44.478Z,7.50
2022-09-29T18:39:12.572Z,7.18
2022-09-29T18:41:40.672Z,5.50
2022-09-29T18:44:14.631Z,6.90
2022-09-29T18:46:44.653Z,5.32
2022-09-29T18:49:13.971Z,6.00
2022-09-29T18:51:42.150Z,6.43
2022-09-29T18:54:12.373Z,5.63
2022-09-29T18:56:40.452Z,5.07
2022-09-29T18:59:11.967Z,9.85
2022-09-29T19:01:40.997Z,4.57
2022-09-29T19:04:11.234Z,4.40
2022-09-29T19:06:39.370Z,4.35
2022-09-29T19:09:07.509Z,4.18
2022-09-29T19:11:35.583Z,17.92
2022-09-29T19:14:03.758Z,4.65
2022-09-29T19:16:34.164Z,7.03
2022-09-29T19:19:04.462Z,6.68
2022-09-29T19:21:34.037Z,4.90
2022-09-29T19:24:02.633Z,4.90
2022-09-29T19:26:30.787Z,4.10
2022-09-29T19:28:59.123Z,4.15
2022-09-29T19:31:27.321Z,4.60
2022-09-29T19:33:57.498Z,5.07
2022-09-29T19:36:25.549Z,5.68
2022-09-29T19:38:55.067Z,7.45
2022-09-29T19:41:24.310Z,7.22
2022-09-29T19:43:52.787Z,9.57
2022-09-29T19:46:21.069Z,12.65
2022-09-29T19:48:49.556Z,10.43
2022-09-29T19:51:35.367Z,4.25
2022-09-29T19:54:17.174Z,5.05
2022-09-29T19:56:46.166Z,4.00
2022-09-29T19:59:14.632Z,4.00
2022-09-29T20:01:44.599Z,4.00
2022-09-29T20:04:12.944Z,4.78
2022-09-29T20:06:41.095Z,6.88
2022-09-29T20:09:10.597Z,8.20
2022-09-29T20:11:40.436Z,9.13
2022-09-29T20:14:09.576Z,5.80
2022-09-29T20:16:41.390Z,4.88
2022-09-29T20:19:10.294Z,5.72
2022-09-29T20:21:39.711Z,6.15
2022-09-29T20:24:07.911Z,5.70
2022-09-29T20:26:38.836Z,4.43
2022-09-29T20:29:06.917Z,4.35
2022-09-29T20:31:36.336Z,4.28
2022-09-29T20:34:04.504Z,4.05
2022-09-29T20:36:32.562Z,3.95
2022-09-29T20:39:00.809Z,5.50
2022-09-29T20:41:29.666Z,5.10
2022-09-29T20:44:00.494Z,8.27
2022-09-29T20:46:28.801Z,5.47
2022-09-29T20:48:57.724Z,3.80
2022-09-29T20:51:26.820Z,4.55
2022-09-29T20:53:55.940Z,4.68
2022-09-29T20:56:30.328Z,3.97
2022-09-29T20:59:00.534Z,3.72
2022-09-29T21:01:29.380Z,3.85
2022-09-29T21:03:58.418Z,3.53
2022-09-29T21:06:27.261Z,4.25
2022-09-29T21:08:55.586Z,4.25
2022-09-29T21:11:23.689Z,4.20
2022-09-29T21:13:52.860Z,5.00
2022-09-29T21:16:22.325Z,4.32
2022-09-29T21:18:50.479Z,4.22
2022-09-29T21:21:18.537Z,4.18
2022-09-29T21:23:46.701Z,3.90
2022-09-29T21:26:16.821Z,4.07
2022-09-29T21:28:48.864Z,5.15
2022-09-29T21:31:18.474Z,4.07
2022-09-29T21:33:51.251Z,4.53
2022-09-29T21:36:19.326Z,4.15
2022-09-29T21:38:47.581Z,3.95
2022-09-29T21:41:16.340Z,3.90
2022-09-29T21:43:45.188Z,3.92
2022-09-29T21:46:14.329Z,4.25
2022-09-29T21:48:43.295Z,4.00
2022-09-29T21:51:14.311Z,4.90
2022-09-29T21:53:42.692Z,5.00
2022-09-29T21:56:13.271Z,4.30
2022-09-29T21:58:41.361Z,4.95
2022-09-29T22:01:11.555Z,5.32
2022-09-29T22:03:41.187Z,4.82
2022-09-29T22:06:13.799Z,5.75
2022-09-29T22:08:41.956Z,5.63
2022-09-29T22:11:10.099Z,4.90
2022-09-29T22:13:38.509Z,5.13
2022-09-29T22:16:08.405Z,5.80
2022-09-29T22:18:41.722Z,5.40
2022-09-29T22:21:11.477Z,5.47
2022-09-29T22:23:41.076Z,5.13
2022-09-29T22:26:11.076Z,4.75
2022-09-29T22:28:39.213Z,5.30
2022-09-29T22:31:09.820Z,5.50
2022-09-29T22:33:38.270Z,6.10
2022-09-29T22:36:06.570Z,5.72
2022-09-29T22:38:36.061Z,5.60
2022-09-29T22:41:10.115Z,6.43
2022-09-29T22:43:38.222Z,5.68
2022-09-29T22:46:08.523Z,6.05
2022-09-29T22:48:36.806Z,5.47
2022-09-29T22:51:05.343Z,5.30
2022-09-29T22:53:33.546Z,5.97
2022-09-29T22:56:02.859Z,5.05
2022-09-29T22:58:32.364Z,5.18
2022-09-29T23:01:04.646Z,5.55
2022-09-29T23:03:32.770Z,5.30
2022-09-29T23:06:00.909Z,5.20
2022-09-29T23:08:30.630Z,4.97
2022-09-29T23:10:58.981Z,5.75
2022-09-29T23:13:27.758Z,5.18
2022-09-29T23:15:57.223Z,5.88
2022-09-29T23:18:25.386Z,5.10
2022-09-29T23:20:59.998Z,4.85
2022-09-29T23:23:28.208Z,5.30
2022-09-29T23:25:56.311Z,6.43
2022-09-29T23:28:24.842Z,5.85
2022-09-29T23:30:53.142Z,6.28
2022-09-29T23:33:22.813Z,5.47
2022-09-29T23:35:50.988Z,6.32
2022-09-29T23:38:36.576Z,5.63
2022-09-29T23:41:04.622Z,6.10
2022-09-29T23:43:32.703Z,6.28
2022-09-29T23:46:00.826Z,5.80
2022-09-29T23:48:31.478Z,6.32
2022-09-29T23:50:59.759Z,5.22
2022-09-29T23:53:28.328Z,5.75
2022-09-29T23:55:56.452Z,5.57
2022-09-29T23:58:24.675Z,5.50
